Ohiopyle, PA (15470)

2:34 PM EST on January 18, 2017 (GMT -0500)
KPACONFL2 | | Change Station

Elev 1336 ft 39.81 °N, 79.36 °W | Updated 2 seconds ago

Overcast
Overcast
41.3 °F
Feels Like 41 °F
N
0.0
Wind Variable Wind from WNW
Gusts 10.0 mph

Today
High -- | Low -- °F
--% Chance of Precip.
Yesterday
High -- | Low -- °F
Precip. -- in
Pressure 30.01 in
Visibility 1.5 miles
Clouds
Windchill 41 °F
Dew Point 36 °F
Humidity 83%
Rainfall 0.15 in
Snow Depth Not available.
7:36 AM 5:21 PM
Waning Gibbous, 61% visible
METAR K2G4 181920Z AUTO 27009G20KT 1 1/2SM BR 00/00 A3001 RMK AO1 VIS 1/2V4
Pressure 30.01 in
Visibility 1.5 miles
Clouds
Windchill 41 °F
Dew Point 36 °F
Humidity 83%
Rainfall 0.15 in
Snow Depth Not available.
7:36 AM 5:21 PM
Waning Gibbous, 61% visible
METAR K2G4 181920Z AUTO 27009G20KT 1 1/2SM BR 00/00 A3001 RMK AO1 VIS 1/2V4

Get Your Daily Forecast Email!

Thanks for signing up!

Be on the lookout for a verification email in your inbox.

You'll start receiving the daily forecast at 8 AM.

×

10-Day Weather Forecast

Almanac

Astronomy

Jan. 18, 2017 Rise Set
Actual Time
Civil Twilight
Nautical Twilight
Astronomical Twilight
Moon
Length of Visible Light
Length of Day
Tomorrow will be .
, % of the Moon is Illuminated

Today's Extremes

State Highs State Lows

Community

WunderPhotos

Upload Photos

1,962,540 photos uploaded!

WunderBlog® & News

Nearby

Air Quality

  Air Quality AQ Index Pollutant
Not available.

Snow Depth

Station Depth Elevation

Earthquake Activity

City Distance Mag. Time & Date
Minimum magnitude displayed is 2.5.

Coastal Water Temperatures

Place Temperature

Stations

Nearby Weather Stations

Station Location Temp. Windchill Dew Point Humidity Wind Precip. Elev Updated Type
                   

Watches & Warnings

There are currently no watches in effect.